Latest Weather Observations for Pallamana

IDS60801

Issued at 7:35 pm CDT Sunday 26 October 2014 (issued every 30 minutes, with the page automatically refreshed every 10 minutes)

About weather observations | Map of weather stations | Latest weather observations for SA | Other Formats
Station Details ID: 024584 Name: PALLAMANA AERODROME Lat: -35.06 Lon: 139.23 Height: 45.0 m
Data from the previous 72 hours. | See also: Recent months at Pallamana
Date/Time
CDT
Temp
°C
App
Temp
°C
Dew
Point
Rel
Hum
%
Delta-T
°C
Wind Press
QNH
hPa
Press
MSL
hPa
Rain
since 9 am
mm
Dir
 
Spd
km/h
Gust
km/h
Spd
kts
Gust
kts
26/07:30pm 24.6 22.3 14.1 52 6.2 NNE 19 26 10 14 1005.6 1005.6 0.0
26/07:00pm 25.8 23.9 14.2 48 6.9 NNE 17 22 9 12 1005.8 1005.8 0.0
26/06:30pm 26.3 23.9 14.3 47 7.2 NNE 20 26 11 14 1005.9 1005.9 0.0
26/06:00pm 27.3 24.7 13.3 42 8.3 NNE 19 22 10 12 1006.0 1006.0 0.0
26/05:30pm 27.7 25.1 12.0 37 9.1 N 17 19 9 10 1006.0 1006.0 0.0
26/05:00pm 26.3 22.3 13.0 43 7.8 N 26 33 14 18 1007.2 1007.2 0.0
26/04:30pm 26.0 22.3 12.8 44 7.7 NNE 24 30 13 16 1008.0 1008.0 0.0
26/04:00pm 26.2 23.2 12.4 42 8.0 NE 20 24 11 13 1007.6 1007.6 0.0
26/03:30pm 26.9 23.6 11.6 38 8.8 NE 20 28 11 15 1008.2 1008.2 0.0
26/03:00pm 29.3 26.3 9.2 28 11.2 WNW 15 22 8 12 1009.3 1009.3 0.0
26/02:30pm 29.2 24.8 8.8 28 11.3 WNW 22 35 12 19 1009.7 1009.7 0.0
26/02:00pm 25.5 23.0 12.3 43 7.6 ENE 17 19 9 10 1009.9 1009.9 0.0
26/01:30pm 23.3 20.4 12.2 49 6.3 NNE 19 26 10 14 1010.4 1010.4 0.0
26/01:00pm 22.4 19.1 11.7 50 6.0 NNE 20 28 11 15 1011.0 1011.0 0.0
26/12:30pm 21.0 17.6 11.2 53 5.4 NNE 20 24 11 13 1011.3 1011.2 0.0
26/12:00pm 20.6 18.1 11.2 55 5.2 N 15 19 8 10 1011.4 1011.3 0.0
26/11:30am 19.5 17.9 11.5 60 4.4 NE 11 17 6 9 1011.4 1011.3 0.0
26/11:00am 19.2 14.6 11.2 60 4.4 NNE 26 35 14 19 1011.7 1011.6 0.0
26/10:30am 17.2 13.9 11.7 70 3.0 N 20 26 11 14 1013.5 1013.4 0.0
26/10:00am 16.1 13.9 12.1 77 2.2 N 15 20 8 11 1013.1 1013.0 0.0
26/09:30am 14.2 12.7 11.8 85 1.3 NNE 11 17 6 9 1013.7 1013.6 0.0
26/09:00am 13.7 11.9 12.0 89 0.9 NNE 13 17 7 9 1014.6 1014.5 0.0
26/08:30am 13.8 11.9 11.7 87 1.1 E 13 17 7 9 1014.8 1014.7 0.0
26/08:00am 13.7 12.9 11.2 85 1.3 WNW 6 11 3 6 1016.1 1016.0 0.0
26/07:30am 13.3 10.8 11.0 86 1.2 NNW 15 20 8 11 1015.9 1015.8 0.0
26/07:24am 13.2 9.7 10.9 86 1.2 WNW 20 30 11 16 1016.5 1016.4 0.0
26/07:00am 12.8 12.0 10.9 88 1.0 N 6 7 3 4 1014.1 1014.0 0.0
26/06:30am 12.8 11.4 10.9 88 1.0 NNW 9 13 5 7 1014.5 1014.4 0.0
26/06:00am 12.9 12.0 10.8 87 1.1 NNE 6 9 3 5 1013.8 1013.7 0.0
26/05:30am 13.1 13.4 11.0 87 1.1 CALM 0 6 0 3 1013.9 1013.8 0.0
26/05:00am 13.2 12.2 10.9 86 1.2 NNE 7 9 4 5 1013.6 1013.5 0.0
26/04:30am 13.2 12.2 11.1 87 1.1 NNE 7 13 4 7 1013.7 1013.6 0.0
26/04:00am 13.4 12.6 11.1 86 1.2 NW 6 9 3 5 1014.2 1014.1 0.0
26/03:30am 13.3 12.9 11.2 87 1.1 SW 4 9 2 5 1013.8 1013.7 0.0
26/03:00am 13.4 12.7 11.3 87 1.1 WSW 6 9 3 5 1014.0 1013.9 0.0
26/02:30am 13.6 12.3 11.3 86 1.2 WSW 9 11 5 6 1014.5 1014.4 0.0
26/02:00am 13.6 13.3 11.5 87 1.1 SSE 4 7 2 4 1014.6 1014.5 0.0
26/01:30am 13.6 12.3 11.3 86 1.2 S 9 17 5 9 1014.9 1014.8 0.0
26/01:00am 13.7 11.7 11.4 86 1.2 SW 13 15 7 8 1015.2 1015.1 0.0
26/12:30am 14.1 12.9 11.5 84 1.4 SW 9 13 5 7 1015.6 1015.5 0.0
26/12:00am 14.3 12.3 11.5 83 1.5 WSW 13 17 7 9 1016.1 1016.0 0.0
 
Date/Time
CDT
Temp
°C
App
Temp
°C
Dew
Point
Rel
Hum
%
Delta-T
°C
Wind Press
QNH
hPa
Press
MSL
hPa
Rain
since 9 am
mm
Dir
 
Spd
km/h
Gust
km/h
Spd
kts
Gust
kts
25/11:30pm 14.6 12.6 11.6 82 1.6 SW 13 17 7 9 1016.6 1016.5 0.0
25/11:00pm 14.8 12.5 11.6 81 1.7 WSW 15 20 8 11 1016.7 1016.6 0.0
25/10:30pm 14.9 12.6 11.7 81 1.7 S 15 20 8 11 1017.2 1017.1 0.0
25/10:00pm 15.0 12.7 11.7 80 1.8 SSW 15 22 8 12 1017.4 1017.3 0.0
25/09:30pm 15.2 12.9 11.7 79 1.9 S 15 20 8 11 1017.5 1017.4 0.0
25/09:00pm 15.4 13.6 12.1 81 1.8 S 13 17 7 9 1017.4 1017.3 0.0
25/08:30pm 15.6 13.3 11.9 78 2.0 S 15 19 8 10 1016.9 1016.8 0.0
25/08:00pm 15.4 13.1 11.7 78 2.0 SSW 15 24 8 13 1016.7 1016.6 0.0
25/07:30pm 15.7 12.6 11.6 76 2.2 S 19 26 10 14 1016.3 1016.2 0.0
25/07:00pm 17.0 13.7 11.7 71 2.9 S 20 30 11 16 1016.1 1016.0 0.0
25/06:30pm 18.3 14.6 11.5 64 3.7 SSW 22 32 12 17 1015.8 1015.7 0.0
25/06:00pm 19.3 15.2 11.5 60 4.3 S 24 30 13 16 1015.6 1015.5 0.0
25/05:30pm 20.2 16.1 11.5 57 4.8 S 24 33 13 18 1015.5 1015.4 0.0
25/05:00pm 20.8 16.7 11.4 55 5.2 SSW 24 33 13 18 1015.5 1015.4 0.0
25/04:30pm 21.7 17.1 11.0 50 5.9 S 26 35 14 19 1015.2 1015.1 0.0
25/04:00pm 22.8 17.8 11.1 47 6.5 SW 28 37 15 20 1015.3 1015.2 0.0
25/03:30pm 23.3 18.3 10.9 45 6.9 S 28 37 15 20 1015.2 1015.1 0.0
25/03:00pm 24.0 19.4 10.9 43 7.3 S 26 35 14 19 1015.3 1015.2 0.0
25/02:30pm 23.8 19.6 11.1 44 7.1 S 24 33 13 18 1015.2 1015.1 0.0
25/02:00pm 24.6 20.8 11.1 42 7.6 S 22 32 12 17 1015.2 1015.1 0.0
25/01:30pm 24.1 20.3 11.1 44 7.3 S 22 32 12 17 1015.3 1015.2 0.0
25/01:00pm 24.2 20.6 10.7 42 7.5 S 20 24 11 13 1015.5 1015.4 0.0
25/12:30pm 23.8 21.3 10.9 44 7.2 S 15 22 8 12 1015.7 1015.6 0.0
25/12:00pm 22.9 21.1 10.8 46 6.7 SSW 11 20 6 11 1016.2 1016.1 0.0
25/11:30am 22.2 20.5 11.2 49 6.1 SSE 11 20 6 11 1016.9 1016.8 0.0
25/11:00am 20.3 18.2 11.2 56 5.0 SSW 13 20 7 11 1017.3 1017.2 0.0
25/10:30am 19.8 18.4 10.8 56 4.9 SW 9 15 5 8 1017.7 1017.6 0.0
25/10:00am 18.1 16.3 10.9 63 3.9 S 11 19 6 10 1018.1 1018.0 0.0
25/09:30am 17.5 15.7 10.8 65 3.6 SSE 11 15 6 8 1018.3 1018.3 0.0
25/09:00am 16.2 14.0 10.8 70 2.9 SSW 13 20 7 11 1018.4 1018.4 0.0
25/08:30am 15.4 13.1 10.5 72 2.6 S 13 19 7 10 1018.3 1018.3 0.0
25/08:00am 14.7 11.7 10.5 76 2.2 SSE 17 20 9 11 1018.2 1018.1 0.0
25/07:30am 14.2 11.2 10.8 80 1.8 SSE 17 20 9 11 1017.9 1017.8 0.0
25/07:00am 14.1 11.6 10.9 81 1.7 SSE 15 20 8 11 1017.6 1017.5 0.0
25/06:30am 14.0 11.3 11.6 85 1.3 SSE 17 20 9 11 1017.2 1017.1 0.0
25/06:00am 14.2 12.2 11.4 83 1.5 S 13 17 7 9 1016.6 1016.5 0.0
25/05:30am 14.2 12.9 11.4 83 1.5 S 9 13 5 7 1016.3 1016.2 0.0
25/05:00am 14.7 12.7 11.5 81 1.7 S 13 20 7 11 1015.4 1015.3 0.0
25/04:30am 15.3 13.5 12.2 82 1.7 S 13 17 7 9 1015.7 1015.6 0.0
25/04:00am 15.4 13.7 12.5 83 1.6 S 13 17 7 9 1015.4 1015.3 0.0
25/03:30am 15.6 14.3 12.5 82 1.7 SSW 11 15 6 8 1015.8 1015.7 0.0
25/03:00am 15.3 14.3 12.4 83 1.6 SW 9 13 5 7 1015.9 1015.8 0.0
25/02:30am 15.2 13.8 12.3 83 1.6 SW 11 13 6 7 1016.0 1015.9 0.0
25/02:00am 15.0 13.6 12.2 83 1.5 SW 11 15 6 8 1016.2 1016.1 0.0
25/01:30am 15.3 12.8 12.4 83 1.6 SSW 17 22 9 12 1016.5 1016.4 0.0
25/01:00am 15.9 13.4 12.4 80 1.9 SSW 17 22 9 12 1016.7 1016.6 0.0
25/12:30am 16.3 13.6 12.9 80 1.9 SSW 19 24 10 13 1016.7 1016.6 0.0
25/12:00am 16.5 14.2 13.1 80 1.9 S 17 22 9 12 1016.8 1016.7 0.0
 
Date/Time
CDT
Temp
°C
App
Temp
°C
Dew
Point
Rel
Hum
%
Delta-T
°C
Wind Press
QNH
hPa
Press
MSL
hPa
Rain
since 9 am
mm
Dir
 
Spd
km/h
Gust
km/h
Spd
kts
Gust
kts
24/11:30pm 16.5 13.7 13.1 80 1.9 SSW 20 26 11 14 1016.6 1016.5 0.0
24/11:00pm 16.6 13.8 13.2 80 1.9 SSW 20 28 11 15 1016.6 1016.5 0.0
24/10:30pm 16.6 14.5 13.6 82 1.7 SSW 17 22 9 12 1016.6 1016.5 0.0
24/10:00pm 17.0 14.6 13.8 81 1.8 SSW 19 26 10 14 1016.5 1016.4 0.0
24/09:30pm 17.3 14.8 14.2 82 1.8 SSW 20 28 11 15 1016.1 1016.0 0.0
24/09:00pm 17.5 15.0 13.6 78 2.2 SSW 19 24 10 13 1015.8 1015.7 0.0
24/08:30pm 17.9 15.6 13.1 73 2.7 SSW 17 24 9 13 1015.2 1015.1 0.0
24/08:00pm 18.7 15.2 13.4 71 3.0 SSW 24 32 13 17 1014.9 1014.8 0.0
24/07:30pm 19.9 16.5 13.6 67 3.6 SSW 24 37 13 20 1014.5 1014.4 0.0
24/07:00pm 21.4 17.2 12.4 56 5.1 SSW 26 35 14 19 1014.2 1014.1 0.0
24/06:30pm 23.1 18.2 11.3 47 6.6 S 28 37 15 20 1013.5 1013.4 0.0
24/06:00pm 25.0 18.9 9.7 38 8.4 SSW 32 43 17 23 1013.2 1013.1 0.0
24/05:30pm 29.3 24.3 8.1 26 11.6 S 24 41 13 22 1012.4 1012.3 0.0
24/05:00pm 32.0 26.9 5.8 19 14.0 S 22 30 12 16 1011.7 1011.6 0.0
24/04:30pm 33.0 28.9 6.2 19 14.5 S 17 22 9 12 1011.6 1011.5 0.0
24/04:00pm 34.6 30.3 1.3 12 16.8 W 13 20 7 11 1011.9 1011.8 0.0
24/03:30pm 33.7 28.0 0.6 12 16.4 WNW 20 26 11 14 1012.2 1012.1 0.0
24/03:00pm 34.3 29.6 3.0 14 16.2 WNW 17 24 9 13 1012.4 1012.3 0.0
24/02:30pm 33.2 28.5 1.0 13 16.0 WNW 15 26 8 14 1012.7 1012.6 0.0
24/02:00pm 33.4 28.4 1.5 13 16.0 W 17 24 9 13 1013.0 1012.9 0.0
24/01:30pm 33.3 28.0 2.1 14 15.8 W 19 26 10 14 1013.2 1013.1 0.0
24/01:00pm 31.9 27.1 2.4 15 14.9 W 17 24 9 13 1013.1 1013.0 0.0
24/12:30pm 31.5 26.1 2.2 15 14.7 W 20 32 11 17 1013.5 1013.4 0.0
24/12:00pm 30.9 27.4 3.5 17 14.0 W 11 22 6 12 1014.0 1013.9 0.0
24/11:30am 27.4 25.4 8.5 30 10.3 SE 9 15 5 8 1014.3 1014.2 0.0
24/11:00am 24.5 22.4 8.4 36 8.6 SSE 9 13 5 7 1014.8 1014.7 0.0
24/10:30am 23.2 21.0 8.0 37 8.0 SSE 9 13 5 7 1014.9 1014.8 0.0
24/10:00am 21.0 19.9 10.6 51 5.7 SSE 7 11 4 6 1015.0 1014.9 0.0
24/09:30am 18.3 17.4 11.5 64 3.7 SE 7 11 4 6 1014.8 1014.7 0.0
24/09:00am 15.6 15.1 11.9 78 2.0 SSE 6 9 3 5 1015.0 1014.9 0.0
24/08:30am 13.2 13.5 12.3 94 0.5 ESE 2 6 1 3 1014.4 1014.3 0.0
24/08:00am 11.9 12.4 11.7 99 0.1 CALM 0 0 0 0 1014.4 1014.3 0.0
24/07:30am 10.8 9.3 10.4 97 0.2 NNW 9 13 5 7 1014.1 1014.0 0.0
24/07:00am 9.9 8.5 9.7 99 0.1 NNW 7 11 4 6 1013.7 1013.6 0.0
24/06:30am 9.8 8.4 9.4 97 0.2 NNW 7 9 4 5 1013.4 1013.3 0.0
24/06:00am 9.6 8.4 9.4 99 0.1 N 6 9 3 5 1012.8 1012.7 0.0
24/05:30am 10.1 8.4 9.7 97 0.2 N 9 11 5 6 1013.1 1013.0 0.0
24/05:00am 10.5 10.6 10.1 97 0.2 CALM 0 0 0 0 1012.8 1012.7 0.0
24/04:30am 10.5 9.4 10.1 97 0.2 WSW 6 7 3 4 1013.0 1012.9 0.0
24/04:00am 10.8 10.1 10.2 96 0.3 S 4 7 2 4 1013.1 1013.0 0.0
24/03:30am 10.5 9.4 10.1 97 0.2 W 6 7 3 4 1013.0 1012.9 0.0
24/03:00am 9.0 8.6 8.4 96 0.3 CALM 0 6 0 3 1013.6 1013.5 0.0
24/02:30am 8.3 7.7 7.2 93 0.5 CALM 0 0 0 0 1013.9 1013.8 0.0
24/02:00am 8.7 7.6 8.5 99 0.1 WSW 4 7 2 4 1014.3 1014.2 0.0
24/01:30am 10.2 8.4 9.4 95 0.4 WSW 9 13 5 7 1014.8 1014.7 0.0
24/01:00am 10.8 9.5 9.8 93 0.5 SSW 7 11 4 6 1015.2 1015.1 0.0
24/12:30am 11.1 9.1 10.1 94 0.5 WSW 11 15 6 8 1015.6 1015.5 0.0
24/12:00am 10.1 8.6 9.1 93 0.5 SW 7 9 4 5 1015.3 1015.2 0.0
 
Date/Time
CDT
Temp
°C
App
Temp
°C
Dew
Point
Rel
Hum
%
Delta-T
°C
Wind Press
QNH
hPa
Press
MSL
hPa
Rain
since 9 am
mm
Dir
 
Spd
km/h
Gust
km/h
Spd
kts
Gust
kts
23/11:30pm 10.6 9.4 9.4 92 0.6 SW 6 7 3 4 1015.5 1015.4 0.0
23/11:00pm 10.5 9.2 9.1 91 0.7 WSW 6 9 3 5 1015.9 1015.8 0.0
23/10:30pm 12.1 10.9 10.4 89 0.9 SW 7 9 4 5 1016.0 1015.9 0.0
23/10:00pm 12.5 12.7 10.6 88 1.0 CALM 0 6 0 3 1016.2 1016.1 0.0
23/09:30pm 12.1 10.4 9.7 85 1.2 SW 9 11 5 6 1016.2 1016.1 0.0
23/09:00pm 13.5 12.0 10.6 82 1.5 SSW 9 11 5 6 1015.9 1015.8 0.0
23/08:30pm 14.7 12.2 10.9 78 2.0 SSW 15 19 8 10 1015.7 1015.6 0.0
23/08:00pm 15.6 13.1 11.1 74 2.4 SSW 15 19 8 10 1015.8 1015.7 0.0

Other Formats:

Comma delimited format used in spreadsheet applications
http://www.bom.gov.au/fwo/IDS60801/IDS60801.95818.axf

JavaScript Object Notation format (JSON) in row-major order
http://www.bom.gov.au/fwo/IDS60801/IDS60801.95818.json